Huvudsida
METAR-TAF:

METAR-TAF

Flygplatser :

Damascus Int. Airport

Damaskus, Syrien

latitud: 33-25N, longitud: 036-31E, höjd: 608 m

Aktuellt väderrapport

Denna rapport gjordes för 26 minuter sedan, klockan 02:00 UTC
Vind 7 kt från sydväst
Temperatur 7°C
Fuktighet 93%
Tryck 1015 hPa

METAR: OSDI 190200Z 22007KT 1500BR 07/06 Q1015

Tid: 04:26 (02:26 UTC)

Väderprognos

Denna rapport gjordes för 4 timmar och 26 minuter sedan, klockan 22:00 UTC
Prognos gäller från 19 kl. 00 UTC till 20 kl. 06 UTC
Vind 10 kt från väst
Sikt: 8000 m
Få moln på en höjd av 3000 ft
Spridda moln på en höjd av 10000 ft
Temporärt
från 19 kl. 00 UTC till 19 kl. 18 UTC
Vind 15 kt från sydväst i byarna ända upp till 25 kt
Sikt: 5000 m
Få moln på en höjd av 2500 ft, Cumulonimbus.
Spridda moln på en höjd av 3000 ft
Brutna moln på en höjd av 9000 ft
regnskurar

TAF: OSDI 182200Z 1900/2006 26010KT 8000 FEW030 SCT100 TEMPO 1900/1918 22015G25KT 5000 SHRA FEW025CB SCT030 BKN090

Aktuella väderrapporter och prognoser från 4000 flygplatser (METAR- och TAF-rapporter).

De tillgängliga stationerna syns som gula och röda prickar på kartan.

För musen över prickarna för att se namnen på stationerna.

Klicka sedan för att få väderrapporter och prognoser.

För att ändra kartan: Klicka på de gröna knapparna med ett svart kors på för att zooma in; den gröna knappen med ett streck på för att zooma ut; eller på de gröna pilarna för angränsande kartor.


METAR-TAF: